Decoded Metar for KGOK (GUTHRIE in OK, USA) (IATA:GOK) | Meteo·Mobile Aviation Weather
aviador You're here:

KGOK Decoded Metar

GUTHRIE in OK, USA
Report Time2018-09-22 02:53:00
UTC Time2018-09-22 03:41:46
Flight Rules mvfr MVFR
Wind360° at 06 kt
W.Decomp.*RWY 34: 5.8 kt HW 1.3 kt RCW
Visibility9999 m
Phenomena:N/A
Clouds:Overcast 026 Hf
Expected CloudBase > 800 ft AGL from Temp-Dew spread
Ceiling2,600 ft
Temp16°C (ISA +3)
Dew Point14°C (88% RH)
AAT15.1°C
QNH1022 hPa
Density Alt1,345 ft
Elevation1,063 ft
Report Wrong Elevation
Raw Report
KGOK 220253Z AUTO 36006KT 10SM OVC026 16/14 A3017 RMK AO2 SLP213
T01610139 53013=

Extra information for KGOK:More info

Metar Taf Metar & Taf Last 4 Metars F.Rules Stats Wind Profile Meteogram Temp Stats Airport Information Weather charts Add Link Nearby VenuesMetar ALERT Operation Metar Decoded Social comments

AIRNAV info for KGOK